Time,TemperatureF,DewpointF,PressureIn,WindDirection,WindDirectionDegrees,WindSpeedMPH,WindSpeedGustMPH,Humidity,HourlyPrecipIn,Conditions,Clouds,dailyrainin,SoftwareType,DateUTC
2013-01-29 00:02:00,28.4,26.6,29.93,NE,47,2.0,3.0,93,0.00,,,0.00,Wunderground v.1.15,2013-01-29 08:02:00,
2013-01-29 00:03:00,28.4,26.6,29.93,NE,47,2.0,2.0,93,0.00,,,0.00,Wunderground v.1.15,2013-01-29 08:03:00,
2013-01-29 00:04:00,28.4,26.6,29.93,NE,47,2.0,2.0,93,0.00,,,0.00,Wunderground v.1.15,2013-01-29 08:04:00,
2013-01-29 00:07:00,28.3,26.5,29.93,NE,47,2.0,2.0,93,0.00,,,0.00,Wunderground v.1.15,2013-01-29 08:07:00,
2013-01-29 00:09:00,28.3,26.5,29.93,NE,47,2.0,2.0,93,0.00,,,0.00,Wunderground v.1.15,2013-01-29 08:09:00,
2013-01-29 00:11:00,28.2,26.4,29.93,NE,47,1.0,2.0,93,0.00,,,0.00,Wunderground v.1.15,2013-01-29 08:11:00,
2013-01-29 00:15:00,28.2,26.4,29.93,NE,47,2.0,2.0,93,0.00,,,0.00,Wunderground v.1.15,2013-01-29 08:15:00,
2013-01-29 00:16:00,28.2,26.4,29.93,NE,47,2.0,2.0,93,0.00,,,0.00,Wunderground v.1.15,2013-01-29 08:16:00,
2013-01-29 00:17:00,28.2,26.4,29.93,NE,47,2.0,2.0,93,0.00,,,0.00,Wunderground v.1.15,2013-01-29 08:17:00,
2013-01-29 00:19:00,28.2,26.4,29.93,NE,47,1.0,2.0,93,0.00,,,0.00,Wunderground v.1.15,2013-01-29 08:19:00,
2013-01-29 00:21:00,28.3,26.5,29.93,NE,47,2.0,2.0,93,0.00,,,0.00,Wunderground v.1.15,2013-01-29 08:21:00,
2013-01-29 00:22:00,28.3,26.5,29.93,NE,47,2.0,2.0,93,0.00,,,0.00,Wunderground v.1.15,2013-01-29 08:22:00,
2013-01-29 00:25:00,28.5,26.7,29.92,NE,47,2.0,3.0,93,0.00,,,0.00,Wunderground v.1.15,2013-01-29 08:25:00,
2013-01-29 00:27:00,28.5,26.7,29.93,NE,47,1.0,3.0,93,0.00,,,0.00,Wunderground v.1.15,2013-01-29 08:27:00,
2013-01-29 00:28:00,28.5,26.7,29.93,NE,47,2.0,3.0,93,0.00,,,0.00,Wunderground v.1.15,2013-01-29 08:28:00,
2013-01-29 00:31:00,28.7,26.9,29.93,NE,47,2.0,3.0,93,0.00,,,0.00,Wunderground v.1.15,2013-01-29 08:31:00,
2013-01-29 00:32:00,28.6,26.8,29.93,NE,47,2.0,3.0,93,0.00,,,0.00,Wunderground v.1.15,2013-01-29 08:32:00,
2013-01-29 00:35:00,28.7,26.9,29.93,NE,47,3.0,3.0,93,0.00,,,0.00,Wunderground v.1.15,2013-01-29 08:35:00,
2013-01-29 00:38:00,28.9,27.1,29.93,NE,47,3.0,3.0,93,0.00,,,0.00,Wunderground v.1.15,2013-01-29 08:38:00,
2013-01-29 00:39:00,29.0,27.2,29.93,NE,47,2.0,3.0,93,0.00,,,0.00,Wunderground v.1.15,2013-01-29 08:39:00,
2013-01-29 00:43:00,29.2,27.4,29.93,NE,47,2.0,2.0,93,0.00,,,0.00,Wunderground v.1.15,2013-01-29 08:43:00,
2013-01-29 00:44:00,29.2,27.4,29.93,NE,47,2.0,2.0,93,0.00,,,0.00,Wunderground v.1.15,2013-01-29 08:44:00,
2013-01-29 00:47:00,29.3,27.3,29.93,NE,47,2.0,2.0,92,0.00,,,0.00,Wunderground v.1.15,2013-01-29 08:47:00,
2013-01-29 00:50:00,29.3,27.3,29.93,NE,47,2.0,2.0,92,0.00,,,0.00,Wunderground v.1.15,2013-01-29 08:50:00,
2013-01-29 00:51:00,29.3,27.3,29.93,NE,47,2.0,2.0,92,0.00,,,0.00,Wunderground v.1.15,2013-01-29 08:51:00,
2013-01-29 00:55:00,29.4,27.4,29.94,NE,47,1.0,2.0,92,0.00,,,0.00,Wunderground v.1.15,2013-01-29 08:55:00,
2013-01-29 00:57:00,29.5,27.5,29.93,NE,47,2.0,2.0,92,0.00,,,0.00,Wunderground v.1.15,2013-01-29 08:57:00,
2013-01-29 01:01:00,29.6,27.6,29.93,NE,47,3.0,3.0,92,0.00,,,0.00,Wunderground v.1.15,2013-01-29 09:01:00,
2013-01-29 01:03:00,29.6,27.6,29.94,NE,47,2.0,2.0,92,0.00,,,0.00,Wunderground v.1.15,2013-01-29 09:03:00,
2013-01-29 01:04:00,29.6,27.6,29.94,NE,47,2.0,2.0,92,0.00,,,0.00,Wunderground v.1.15,2013-01-29 09:04:00,
2013-01-29 01:06:00,29.6,27.6,29.94,NE,47,2.0,2.0,92,0.00,,,0.00,Wunderground v.1.15,2013-01-29 09:06:00,
2013-01-29 01:07:00,29.6,27.6,29.94,NE,47,2.0,2.0,92,0.00,,,0.00,Wunderground v.1.15,2013-01-29 09:07:00,
2013-01-29 01:09:00,29.6,27.3,29.94,NE,47,2.0,2.0,91,0.00,,,0.00,Wunderground v.1.15,2013-01-29 09:09:00,
2013-01-29 01:13:00,29.5,27.2,29.95,NE,47,1.0,2.0,91,0.00,,,0.00,Wunderground v.1.15,2013-01-29 09:13:00,
2013-01-29 01:15:00,29.4,27.1,29.95,NE,47,2.0,2.0,91,0.00,,,0.00,Wunderground v.1.15,2013-01-29 09:15:00,
2013-01-29 01:16:00,29.4,27.1,29.95,NE,47,0.0,2.0,91,0.00,,,0.00,Wunderground v.1.15,2013-01-29 09:16:00,
2013-01-29 01:19:00,29.4,27.1,29.95,NE,47,0.0,2.0,91,0.00,,,0.00,Wunderground v.1.15,2013-01-29 09:19:00,
2013-01-29 01:22:00,29.5,27.5,29.95,NE,47,0.0,2.0,92,0.00,,,0.00,Wunderground v.1.15,2013-01-29 09:22:00,
2013-01-29 01:24:00,29.6,27.6,29.95,NE,47,0.0,0.0,92,0.00,,,0.00,Wunderground v.1.15,2013-01-29 09:24:00,
2013-01-29 01:25:00,29.6,27.6,29.95,NE,47,0.0,0.0,92,0.00,,,0.00,Wunderground v.1.15,2013-01-29 09:25:00,
2013-01-29 01:29:00,29.5,27.2,29.95,NE,47,0.0,0.0,91,0.00,,,0.00,Wunderground v.1.15,2013-01-29 09:29:00,
2013-01-29 01:31:00,29.4,27.1,29.95,NE,47,0.0,0.0,91,0.00,,,0.00,Wunderground v.1.15,2013-01-29 09:31:00,
2013-01-29 01:34:00,29.4,27.1,29.95,NE,47,0.0,0.0,91,0.00,,,0.00,Wunderground v.1.15,2013-01-29 09:34:00,
2013-01-29 01:37:00,29.3,27.0,29.95,NE,47,0.0,0.0,91,0.00,,,0.00,Wunderground v.1.15,2013-01-29 09:37:00,
2013-01-29 01:39:00,29.2,26.9,29.95,NE,47,0.0,0.0,91,0.00,,,0.00,Wunderground v.1.15,2013-01-29 09:39:00,
2013-01-29 01:42:00,29.1,26.8,29.96,NE,47,0.0,0.0,91,0.00,,,0.00,Wunderground v.1.15,2013-01-29 09:42:00,
2013-01-29 01:43:00,29.1,26.8,29.96,NE,47,0.0,0.0,91,0.00,,,0.00,Wunderground v.1.15,2013-01-29 09:43:00,
2013-01-29 01:44:00,29.0,26.7,29.96,NE,47,0.0,0.0,91,0.00,,,0.00,Wunderground v.1.15,2013-01-29 09:44:00,
2013-01-29 01:45:00,29.0,26.7,29.96,NE,47,0.0,0.0,91,0.00,,,0.00,Wunderground v.1.15,2013-01-29 09:45:00,
2013-01-29 01:49:00,28.8,26.5,29.96,NE,47,0.0,0.0,91,0.00,,,0.00,Wunderground v.1.15,2013-01-29 09:49:00,
2013-01-29 01:52:00,28.8,26.5,29.96,NE,47,0.0,0.0,91,0.00,,,0.00,Wunderground v.1.15,2013-01-29 09:52:00,
2013-01-29 01:53:00,28.8,26.5,29.96,NE,47,0.0,0.0,91,0.00,,,0.00,Wunderground v.1.15,2013-01-29 09:53:00,
2013-01-29 01:57:00,28.8,26.5,29.96,NE,47,0.0,0.0,91,0.00,,,0.00,Wunderground v.1.15,2013-01-29 09:57:00,
2013-01-29 02:02:00,28.9,26.9,29.96,NE,47,1.0,2.0,92,0.00,,,0.00,Wunderground v.1.15,2013-01-29 10:02:00,
2013-01-29 02:07:00,28.8,26.5,29.96,NE,47,0.0,1.0,91,0.00,,,0.00,Wunderground v.1.15,2013-01-29 10:07:00,
2013-01-29 02:12:00,28.6,26.6,29.96,NE,47,0.0,1.0,92,0.00,,,0.00,Wunderground v.1.15,2013-01-29 10:12:00,
2013-01-29 02:17:00,28.7,26.7,29.97,NE,47,0.0,1.0,92,0.00,,,0.00,Wunderground v.1.15,2013-01-29 10:17:00,
2013-01-29 02:22:00,28.7,26.7,29.97,NE,47,0.0,1.0,92,0.00,,,0.00,Wunderground v.1.15,2013-01-29 10:22:00,
2013-01-29 02:27:00,28.7,26.7,29.97,NE,47,2.0,2.0,92,0.00,,,0.00,Wunderground v.1.15,2013-01-29 10:27:00,
2013-01-29 02:32:00,28.5,26.5,29.97,NE,47,0.0,2.0,92,0.00,,,0.00,Wunderground v.1.15,2013-01-29 10:32:00,
2013-01-29 02:37:00,28.5,26.5,29.97,NE,47,2.0,2.0,92,0.00,,,0.00,Wunderground v.1.15,2013-01-29 10:37:00,
2013-01-29 02:42:00,28.6,26.6,29.98,NE,47,0.0,2.0,92,0.00,,,0.00,Wunderground v.1.15,2013-01-29 10:42:00,
2013-01-29 02:47:00,28.7,26.7,29.98,NE,47,0.0,0.0,92,0.00,,,0.00,Wunderground v.1.15,2013-01-29 10:47:00,
2013-01-29 02:52:00,28.4,26.4,29.98,NE,47,0.0,0.0,92,0.00,,,0.00,Wunderground v.1.15,2013-01-29 10:52:00,
2013-01-29 02:57:00,28.3,26.3,29.98,NE,47,0.0,1.0,92,0.00,,,0.00,Wunderground v.1.15,2013-01-29 10:57:00,
2013-01-29 03:02:00,28.5,26.7,29.99,NE,47,0.0,1.0,93,0.00,,,0.00,Wunderground v.1.15,2013-01-29 11:02:00,
2013-01-29 03:07:00,28.5,26.5,29.99,NE,47,2.0,3.0,92,0.00,,,0.00,Wunderground v.1.15,2013-01-29 11:07:00,
2013-01-29 03:12:00,28.5,26.5,29.99,NE,47,0.0,3.0,92,0.00,,,0.00,Wunderground v.1.15,2013-01-29 11:12:00,
2013-01-29 03:17:00,28.4,26.4,29.99,NE,47,0.0,1.0,92,0.00,,,0.00,Wunderground v.1.15,2013-01-29 11:17:00,
2013-01-29 03:22:00,28.2,26.2,29.99,NE,47,2.0,2.0,92,0.00,,,0.00,Wunderground v.1.15,2013-01-29 11:22:00,
2013-01-29 03:27:00,28.0,26.0,29.99,NE,47,0.0,2.0,92,0.00,,,0.00,Wunderground v.1.15,2013-01-29 11:27:00,
2013-01-29 03:32:00,28.0,26.0,29.99,NE,47,0.0,2.0,92,0.00,,,0.00,Wunderground v.1.15,2013-01-29 11:32:00,
2013-01-29 03:37:00,28.2,26.4,30.00,NE,47,0.0,0.0,93,0.00,,,0.00,Wunderground v.1.15,2013-01-29 11:37:00,
2013-01-29 03:42:00,28.3,26.5,30.00,NE,47,0.0,0.0,93,0.00,,,0.00,Wunderground v.1.15,2013-01-29 11:42:00,
2013-01-29 03:47:00,28.5,26.7,30.00,NE,47,0.0,0.0,93,0.00,,,0.00,Wunderground v.1.15,2013-01-29 11:47:00,
2013-01-29 03:52:00,28.3,26.3,30.00,NE,47,0.0,0.0,92,0.00,,,0.00,Wunderground v.1.15,2013-01-29 11:52:00,
2013-01-29 03:54:00,28.2,26.2,30.00,NE,47,0.0,0.0,92,0.00,,,0.00,Wunderground v.1.15,2013-01-29 11:54:00,
2013-01-29 03:55:00,28.2,26.2,30.01,NE,47,0.0,0.0,92,0.00,,,0.00,Wunderground v.1.15,2013-01-29 11:55:00,
2013-01-29 04:00:00,28.3,26.3,30.01,NE,47,0.0,0.0,92,0.00,,,0.00,Wunderground v.1.15,2013-01-29 12:00:00,
2013-01-29 04:05:00,28.1,26.1,30.01,NE,47,0.0,0.0,92,0.00,,,0.00,Wunderground v.1.15,2013-01-29 12:05:00,
2013-01-29 04:10:00,28.0,26.0,30.01,NE,47,3.0,4.0,92,0.00,,,0.00,Wunderground v.1.15,2013-01-29 12:10:00,
2013-01-29 04:15:00,28.2,26.4,30.02,NE,47,2.0,2.0,93,0.00,,,0.00,Wunderground v.1.15,2013-01-29 12:15:00,
2013-01-29 04:20:00,28.4,26.6,30.02,NE,47,2.0,2.0,93,0.00,,,0.00,Wunderground v.1.15,2013-01-29 12:20:00,
2013-01-29 04:25:00,28.5,26.7,30.02,NE,47,2.0,3.0,93,0.00,,,0.00,Wunderground v.1.15,2013-01-29 12:25:00,
2013-01-29 04:30:00,28.7,26.9,30.02,NE,47,1.0,3.0,93,0.00,,,0.00,Wunderground v.1.15,2013-01-29 12:30:00,
2013-01-29 04:35:00,28.7,26.7,30.02,NE,47,0.0,3.0,92,0.00,,,0.00,Wunderground v.1.15,2013-01-29 12:35:00,
2013-01-29 04:40:00,28.4,26.4,30.02,NE,47,0.0,3.0,92,0.00,,,0.00,Wunderground v.1.15,2013-01-29 12:40:00,
2013-01-29 04:46:00,28.1,25.8,30.03,NE,47,0.0,3.0,91,0.00,,,0.00,Wunderground v.1.15,2013-01-29 12:46:00,
2013-01-29 04:50:00,27.9,25.9,30.03,NE,47,0.0,3.0,92,0.00,,,0.00,Wunderground v.1.15,2013-01-29 12:50:00,
2013-01-29 04:56:00,27.9,25.9,30.03,NE,47,0.0,2.0,92,0.00,,,0.00,Wunderground v.1.15,2013-01-29 12:56:00,
2013-01-29 05:00:00,28.0,26.2,30.03,NE,47,1.0,2.0,93,0.00,,,0.00,Wunderground v.1.15,2013-01-29 13:00:00,
2013-01-29 05:05:00,28.3,26.5,30.03,NE,47,0.0,1.0,93,0.00,,,0.00,Wunderground v.1.15,2013-01-29 13:05:00,
2013-01-29 05:10:00,28.5,26.7,30.03,NE,47,1.0,3.0,93,0.00,,,0.00,Wunderground v.1.15,2013-01-29 13:10:00,
2013-01-29 05:15:00,28.5,26.5,30.04,NE,47,0.0,1.0,92,0.00,,,0.00,Wunderground v.1.15,2013-01-29 13:15:00,
2013-01-29 05:21:00,28.4,26.4,30.04,NE,47,0.0,1.0,92,0.00,,,0.00,Wunderground v.1.15,2013-01-29 13:21:00,
2013-01-29 05:26:00,28.6,26.8,30.04,NE,47,0.0,0.0,93,0.00,,,0.00,Wunderground v.1.15,2013-01-29 13:26:00,
2013-01-29 05:31:00,28.7,26.7,30.04,NE,47,1.0,2.0,92,0.00,,,0.00,Wunderground v.1.15,2013-01-29 13:31:00,
2013-01-29 05:36:00,28.3,26.3,30.04,NE,47,0.0,1.0,92,0.00,,,0.00,Wunderground v.1.15,2013-01-29 13:36:00,
2013-01-29 05:41:00,28.3,26.3,30.05,NE,47,0.0,1.0,92,0.00,,,0.00,Wunderground v.1.15,2013-01-29 13:41:00,
2013-01-29 05:46:00,28.3,26.3,30.05,NE,47,0.0,0.0,92,0.00,,,0.00,Wunderground v.1.15,2013-01-29 13:46:00,
2013-01-29 05:51:00,28.1,26.1,30.06,NE,47,0.0,1.0,92,0.00,,,0.00,Wunderground v.1.15,2013-01-29 13:51:00,
2013-01-29 05:56:00,28.1,26.1,30.07,NE,47,0.0,2.0,92,0.00,,,0.00,Wunderground v.1.15,2013-01-29 13:56:00,
2013-01-29 06:01:00,28.0,26.0,30.07,NE,47,2.0,3.0,92,0.00,,,0.00,Wunderground v.1.15,2013-01-29 14:01:00,
2013-01-29 06:06:00,27.5,25.5,30.07,NE,47,2.0,3.0,92,0.00,,,0.00,Wunderground v.1.15,2013-01-29 14:06:00,
2013-01-29 06:11:00,27.4,25.4,30.07,NE,47,1.0,3.0,92,0.00,,,0.00,Wunderground v.1.15,2013-01-29 14:11:00,
2013-01-29 06:16:00,27.6,25.8,30.08,NE,47,3.0,3.0,93,0.00,,,0.00,Wunderground v.1.15,2013-01-29 14:16:00,
2013-01-29 06:21:00,27.9,26.1,30.08,NE,47,1.0,4.0,93,0.00,,,0.00,Wunderground v.1.15,2013-01-29 14:21:00,
2013-01-29 06:26:00,27.9,26.1,30.08,NE,47,0.0,3.0,93,0.00,,,0.00,Wunderground v.1.15,2013-01-29 14:26:00,
2013-01-29 06:31:00,27.9,25.9,30.08,NE,47,0.0,3.0,92,0.00,,,0.00,Wunderground v.1.15,2013-01-29 14:31:00,
2013-01-29 06:36:00,27.8,25.8,30.08,NE,47,0.0,1.0,92,0.00,,,0.00,Wunderground v.1.15,2013-01-29 14:36:00,
2013-01-29 06:41:00,27.9,26.1,30.09,NE,47,2.0,3.0,93,0.00,,,0.00,Wunderground v.1.15,2013-01-29 14:41:00,
2013-01-29 06:46:00,27.7,25.7,30.09,NE,47,1.0,2.0,92,0.00,,,0.00,Wunderground v.1.15,2013-01-29 14:46:00,
2013-01-29 06:51:00,27.6,25.6,30.09,NE,47,2.0,3.0,92,0.00,,,0.00,Wunderground v.1.15,2013-01-29 14:51:00,
2013-01-29 06:56:00,27.5,25.5,30.09,NE,47,1.0,3.0,92,0.00,,,0.00,Wunderground v.1.15,2013-01-29 14:56:00,
2013-01-29 07:01:00,27.4,25.4,30.10,NE,47,0.0,3.0,92,0.00,,,0.00,Wunderground v.1.15,2013-01-29 15:01:00,
2013-01-29 07:06:00,27.3,25.5,30.10,NE,47,0.0,2.0,93,0.00,,,0.00,Wunderground v.1.15,2013-01-29 15:06:00,
2013-01-29 07:11:00,27.2,25.2,30.11,NE,47,1.0,2.0,92,0.00,,,0.00,Wunderground v.1.15,2013-01-29 15:11:00,
2013-01-29 07:16:00,26.6,24.6,30.12,NE,47,3.0,4.0,92,0.00,,,0.00,Wunderground v.1.15,2013-01-29 15:16:00,
2013-01-29 07:21:00,26.6,24.8,30.12,NE,47,3.0,4.0,93,0.00,,,0.00,Wunderground v.1.15,2013-01-29 15:21:00,
2013-01-29 07:26:00,26.3,24.3,30.12,NE,47,4.0,5.0,92,0.00,,,0.00,Wunderground v.1.15,2013-01-29 15:26:00,
2013-01-29 07:31:00,26.5,24.8,30.13,NE,47,2.0,6.0,93,0.00,,,0.00,Wunderground v.1.15,2013-01-29 15:31:00,
2013-01-29 07:36:00,26.3,24.3,30.13,NE,47,3.0,3.0,92,0.00,,,0.00,Wunderground v.1.15,2013-01-29 15:36:00,
2013-01-29 07:41:00,26.5,24.8,30.13,NE,47,2.0,4.0,93,0.00,,,0.00,Wunderground v.1.15,2013-01-29 15:41:00,
2013-01-29 07:46:00,26.7,24.9,30.13,NE,47,1.0,2.0,93,0.00,,,0.00,Wunderground v.1.15,2013-01-29 15:46:00,
2013-01-29 07:51:00,26.8,25.0,30.14,NE,47,4.0,5.0,93,0.00,,,0.00,Wunderground v.1.15,2013-01-29 15:51:00,
2013-01-29 07:56:00,26.9,25.1,30.13,NE,47,3.0,4.0,93,0.00,,,0.00,Wunderground v.1.15,2013-01-29 15:56:00,
2013-01-29 08:01:00,27.0,25.2,30.14,NE,47,6.0,6.0,93,0.00,,,0.00,Wunderground v.1.15,2013-01-29 16:01:00,
2013-01-29 08:06:00,27.1,25.3,30.14,NNE,21,5.0,7.0,93,0.00,,,0.00,Wunderground v.1.15,2013-01-29 16:06:00,
2013-01-29 08:11:00,27.2,25.4,30.15,North,5,4.0,7.0,93,0.00,,,0.00,Wunderground v.1.15,2013-01-29 16:11:00,
2013-01-29 08:16:00,26.9,24.9,30.15,North,355,5.0,7.0,92,0.00,,,0.00,Wunderground v.1.15,2013-01-29 16:16:00,
2013-01-29 08:21:00,26.9,25.1,30.15,NNW,348,3.0,8.0,93,0.00,,,0.00,Wunderground v.1.15,2013-01-29 16:21:00,
2013-01-29 08:26:00,27.1,25.3,30.15,NNW,348,3.0,5.0,93,0.00,,,0.00,Wunderground v.1.15,2013-01-29 16:26:00,
2013-01-29 08:31:00,27.2,25.4,30.16,NNW,348,1.0,5.0,93,0.00,,,0.00,Wunderground v.1.15,2013-01-29 16:31:00,
2013-01-29 08:36:00,27.5,25.7,30.16,NNW,348,1.0,3.0,93,0.00,,,0.00,Wunderground v.1.15,2013-01-29 16:36:00,
2013-01-29 08:41:00,27.7,25.9,30.17,NNW,348,2.0,3.0,93,0.00,,,0.00,Wunderground v.1.15,2013-01-29 16:41:00,
2013-01-29 08:46:00,27.9,26.1,30.17,NNW,348,4.0,5.0,93,0.00,,,0.00,Wunderground v.1.15,2013-01-29 16:46:00,
2013-01-29 08:51:00,28.1,26.3,30.17,NNW,348,4.0,5.0,93,0.00,,,0.00,Wunderground v.1.15,2013-01-29 16:51:00,
2013-01-29 08:56:00,28.2,26.4,30.17,NNW,348,5.0,6.0,93,0.00,,,0.00,Wunderground v.1.15,2013-01-29 16:56:00,
2013-01-29 09:01:00,28.4,26.6,30.17,NNW,348,5.0,8.0,93,0.00,,,0.00,Wunderground v.1.15,2013-01-29 17:01:00,
2013-01-29 09:06:00,28.7,26.9,30.18,NNW,348,5.0,6.0,93,0.00,,,0.00,Wunderground v.1.15,2013-01-29 17:06:00,
2013-01-29 09:11:00,28.9,27.1,30.18,NNW,348,6.0,8.0,93,0.00,,,0.00,Wunderground v.1.15,2013-01-29 17:11:00,
2013-01-29 09:16:00,29.2,27.4,30.18,NNW,348,4.0,7.0,93,0.00,,,0.00,Wunderground v.1.15,2013-01-29 17:16:00,
2013-01-29 09:21:00,29.5,27.7,30.18,NNW,348,5.0,7.0,93,0.00,,,0.00,Wunderground v.1.15,2013-01-29 17:21:00,
2013-01-29 09:25:00,29.9,28.1,30.19,NNW,348,2.0,4.0,93,0.00,,,0.00,Wunderground v.1.15,2013-01-29 17:25:00,
2013-01-29 09:31:00,30.3,28.5,30.19,NNW,348,3.0,4.0,93,0.00,,,0.00,Wunderground v.1.15,2013-01-29 17:31:00,
2013-01-29 09:36:00,30.8,29.0,30.19,NNW,348,5.0,6.0,93,0.00,,,0.00,Wunderground v.1.15,2013-01-29 17:36:00,
2013-01-29 09:41:00,31.0,28.9,30.19,NNW,348,4.0,7.0,92,0.00,,,0.00,Wunderground v.1.15,2013-01-29 17:41:00,
2013-01-29 09:46:00,31.4,29.3,30.19,NNW,348,3.0,7.0,92,0.00,,,0.00,Wunderground v.1.15,2013-01-29 17:46:00,
2013-01-29 09:51:00,31.7,29.6,30.20,NNW,348,7.0,8.0,92,0.00,,,0.00,Wunderground v.1.15,2013-01-29 17:51:00,
2013-01-29 09:56:00,31.9,29.6,30.21,NNW,348,5.0,7.0,91,0.00,,,0.00,Wunderground v.1.15,2013-01-29 17:56:00,
2013-01-29 10:01:00,32.3,29.7,30.21,NNW,348,4.0,8.0,90,0.00,,,0.00,Wunderground v.1.15,2013-01-29 18:01:00,
2013-01-29 10:06:00,32.7,30.1,30.21,NNW,348,3.0,5.0,90,0.00,,,0.00,Wunderground v.1.15,2013-01-29 18:06:00,
2013-01-29 10:11:00,32.8,30.2,30.21,NNW,348,3.0,6.0,90,0.00,,,0.00,Wunderground v.1.15,2013-01-29 18:11:00,
2013-01-29 10:16:00,32.8,29.9,30.22,NNW,348,1.0,6.0,89,0.00,,,0.00,Wunderground v.1.15,2013-01-29 18:16:00,
2013-01-29 10:21:00,33.0,30.1,30.22,NNW,348,2.0,6.0,89,0.00,,,0.00,Wunderground v.1.15,2013-01-29 18:21:00,
2013-01-29 10:26:00,33.3,30.7,30.22,NNW,348,4.0,4.0,90,0.00,,,0.00,Wunderground v.1.15,2013-01-29 18:26:00,
2013-01-29 10:31:00,33.6,30.7,30.23,NNW,348,6.0,6.0,89,0.00,,,0.00,Wunderground v.1.15,2013-01-29 18:31:00,
2013-01-29 10:36:00,33.9,30.7,30.22,NNW,348,4.0,6.0,88,0.00,,,0.00,Wunderground v.1.15,2013-01-29 18:36:00,
2013-01-29 10:41:00,34.2,31.0,30.22,NNW,348,2.0,7.0,88,0.00,,,0.00,Wunderground v.1.15,2013-01-29 18:41:00,
2013-01-29 10:46:00,34.3,30.8,30.23,NNW,348,7.0,7.0,87,0.00,,,0.00,Wunderground v.1.15,2013-01-29 18:46:00,
2013-01-29 10:51:00,34.5,31.0,30.23,NNW,348,5.0,8.0,87,0.00,,,0.00,Wunderground v.1.15,2013-01-29 18:51:00,
2013-01-29 10:56:00,34.6,30.8,30.23,NNW,348,6.0,9.0,86,0.00,,,0.00,Wunderground v.1.15,2013-01-29 18:56:00,
2013-01-29 11:01:00,34.8,31.0,30.23,NNW,348,8.0,10.0,86,0.00,,,0.00,Wunderground v.1.15,2013-01-29 19:01:00,
2013-01-29 11:06:00,34.9,30.8,30.23,NNW,348,8.0,9.0,85,0.00,,,0.00,Wunderground v.1.15,2013-01-29 19:06:00,
2013-01-29 11:11:00,35.0,30.7,30.23,NNW,348,3.0,9.0,84,0.00,,,0.00,Wunderground v.1.15,2013-01-29 19:11:00,
2013-01-29 11:16:00,35.4,31.0,30.23,NNW,348,5.0,7.0,84,0.00,,,0.00,Wunderground v.1.15,2013-01-29 19:16:00,
2013-01-29 11:21:00,35.7,30.7,30.23,NNW,348,5.0,8.0,82,0.00,,,0.00,Wunderground v.1.15,2013-01-29 19:21:00,
2013-01-29 11:26:00,36.3,31.3,30.24,NNW,348,6.0,10.0,82,0.00,,,0.00,Wunderground v.1.15,2013-01-29 19:26:00,
2013-01-29 11:31:00,36.4,31.1,30.24,WNW,295,5.0,11.0,81,0.00,,,0.00,Wunderground v.1.15,2013-01-29 19:31:00,
2013-01-29 11:36:00,36.3,30.7,30.24,WNW,295,5.0,9.0,80,0.00,,,0.00,Wunderground v.1.15,2013-01-29 19:36:00,
2013-01-29 11:41:00,36.6,31.0,30.24,WNW,295,7.0,9.0,80,0.00,,,0.00,Wunderground v.1.15,2013-01-29 19:41:00,
2013-01-29 11:46:00,37.3,31.7,30.24,WNW,295,8.0,9.0,80,0.00,,,0.00,Wunderground v.1.15,2013-01-29 19:46:00,
2013-01-29 11:51:00,37.3,31.1,30.23,WNW,295,6.0,9.0,78,0.00,,,0.00,Wunderground v.1.15,2013-01-29 19:51:00,
2013-01-29 11:56:00,37.3,31.1,30.23,WNW,295,3.0,8.0,78,0.00,,,0.00,Wunderground v.1.15,2013-01-29 19:56:00,
2013-01-29 12:01:00,37.2,31.0,30.23,WNW,295,4.0,8.0,78,0.00,,,0.00,Wunderground v.1.15,2013-01-29 20:01:00,
2013-01-29 12:06:00,37.2,31.0,30.23,WNW,295,5.0,7.0,78,0.00,,,0.00,Wunderground v.1.15,2013-01-29 20:06:00,
2013-01-29 12:11:00,37.2,31.0,30.23,WNW,295,5.0,7.0,78,0.00,,,0.00,Wunderground v.1.15,2013-01-29 20:11:00,
2013-01-29 12:16:00,37.2,31.0,30.23,WNW,295,4.0,6.0,78,0.00,,,0.00,Wunderground v.1.15,2013-01-29 20:16:00,
2013-01-29 12:21:00,37.1,30.9,30.23,WNW,295,4.0,6.0,78,0.00,,,0.00,Wunderground v.1.15,2013-01-29 20:21:00,
2013-01-29 12:26:00,37.4,31.2,30.23,WNW,295,2.0,7.0,78,0.00,,,0.00,Wunderground v.1.15,2013-01-29 20:26:00,
2013-01-29 12:31:00,37.3,31.1,30.24,WNW,295,6.0,7.0,78,0.00,,,0.00,Wunderground v.1.15,2013-01-29 20:31:00,
2013-01-29 12:36:00,37.2,30.7,30.23,WNW,295,5.0,6.0,77,0.00,,,0.00,Wunderground v.1.15,2013-01-29 20:36:00,
2013-01-29 12:41:00,37.2,30.7,30.24,WNW,295,4.0,7.0,77,0.00,,,0.00,Wunderground v.1.15,2013-01-29 20:41:00,
2013-01-29 12:46:00,37.2,30.7,30.23,WNW,295,5.0,7.0,77,0.00,,,0.00,Wunderground v.1.15,2013-01-29 20:46:00,
2013-01-29 12:51:00,37.1,30.6,30.23,WNW,295,6.0,7.0,77,0.00,,,0.00,Wunderground v.1.15,2013-01-29 20:51:00,
2013-01-29 12:56:00,37.3,31.1,30.22,WNW,295,5.0,6.0,78,0.00,,,0.00,Wunderground v.1.15,2013-01-29 20:56:00,
2013-01-29 13:01:00,37.5,30.9,30.23,WNW,295,5.0,6.0,77,0.00,,,0.00,Wunderground v.1.15,2013-01-29 21:01:00,
2013-01-29 13:06:00,37.4,30.8,30.23,WNW,295,5.0,5.0,77,0.00,,,0.00,Wunderground v.1.15,2013-01-29 21:06:00,
2013-01-29 13:11:00,37.7,31.1,30.22,WNW,295,3.0,5.0,77,0.00,,,0.00,Wunderground v.1.15,2013-01-29 21:11:00,
2013-01-29 13:16:00,37.8,30.9,30.22,WNW,295,2.0,5.0,76,0.00,,,0.00,Wunderground v.1.15,2013-01-29 21:16:00,
2013-01-29 13:21:00,37.9,31.0,30.23,WNW,295,1.0,5.0,76,0.00,,,0.00,Wunderground v.1.15,2013-01-29 21:21:00,
2013-01-29 13:26:00,37.8,31.2,30.22,WNW,295,2.0,4.0,77,0.00,,,0.00,Wunderground v.1.15,2013-01-29 21:26:00,
2013-01-29 13:31:00,38.0,31.4,30.22,WNW,295,1.0,5.0,77,0.00,,,0.00,Wunderground v.1.15,2013-01-29 21:31:00,
2013-01-29 13:36:00,38.1,31.2,30.22,WNW,295,2.0,4.0,76,0.00,,,0.00,Wunderground v.1.15,2013-01-29 21:36:00,
2013-01-29 13:41:00,38.2,31.6,30.22,WNW,295,1.0,4.0,77,0.00,,,0.00,Wunderground v.1.15,2013-01-29 21:41:00,
2013-01-29 13:46:00,38.5,31.9,30.22,WNW,295,3.0,3.0,77,0.00,,,0.00,Wunderground v.1.15,2013-01-29 21:46:00,
2013-01-29 13:51:00,38.8,31.9,30.23,WNW,295,2.0,5.0,76,0.00,,,0.00,Wunderground v.1.15,2013-01-29 21:51:00,
2013-01-29 13:56:00,39.3,32.0,30.23,WNW,295,2.0,3.0,75,0.00,,,0.00,Wunderground v.1.15,2013-01-29 21:56:00,
2013-01-29 14:01:00,39.5,32.2,30.23,WNW,295,4.0,5.0,75,0.00,,,0.00,Wunderground v.1.15,2013-01-29 22:01:00,
2013-01-29 14:06:00,39.5,32.2,30.23,WNW,295,1.0,3.0,75,0.00,,,0.00,Wunderground v.1.15,2013-01-29 22:06:00,
2013-01-29 14:11:00,39.6,32.3,30.23,WNW,295,1.0,3.0,75,0.00,,,0.00,Wunderground v.1.15,2013-01-29 22:11:00,
2013-01-29 14:16:00,40.0,32.7,30.23,WNW,295,0.0,2.0,75,0.00,,,0.00,Wunderground v.1.15,2013-01-29 22:16:00,
2013-01-29 14:21:00,40.7,33.1,30.23,WNW,295,1.0,3.0,74,0.00,,,0.00,Wunderground v.1.15,2013-01-29 22:21:00,
2013-01-29 14:26:00,40.9,32.9,30.23,WNW,295,2.0,4.0,73,0.00,,,0.00,Wunderground v.1.15,2013-01-29 22:26:00,
2013-01-29 14:31:00,40.6,32.6,30.23,WNW,295,1.0,4.0,73,0.00,,,0.00,Wunderground v.1.15,2013-01-29 22:31:00,
2013-01-29 14:36:00,40.7,32.7,30.23,WNW,295,1.0,2.0,73,0.00,,,0.00,Wunderground v.1.15,2013-01-29 22:36:00,
2013-01-29 14:41:00,40.9,32.6,30.23,WNW,295,0.0,2.0,72,0.00,,,0.00,Wunderground v.1.15,2013-01-29 22:41:00,
2013-01-29 14:46:00,41.2,33.2,30.22,WNW,295,0.0,0.0,73,0.00,,,0.00,Wunderground v.1.15,2013-01-29 22:46:00,
2013-01-29 14:51:00,41.7,32.6,30.22,WNW,295,2.0,2.0,70,0.00,,,0.00,Wunderground v.1.15,2013-01-29 22:51:00,
2013-01-29 14:56:00,41.8,32.7,30.23,WNW,295,0.0,1.0,70,0.00,,,0.00,Wunderground v.1.15,2013-01-29 22:56:00,
2013-01-29 15:01:00,41.9,32.1,30.23,WNW,295,2.0,3.0,68,0.00,,,0.00,Wunderground v.1.15,2013-01-29 23:01:00,
2013-01-29 15:06:00,42.3,32.5,30.23,WNW,295,0.0,1.0,68,0.00,,,0.00,Wunderground v.1.15,2013-01-29 23:06:00,
2013-01-29 15:11:00,42.1,32.3,30.23,WNW,295,0.0,1.0,68,0.00,,,0.00,Wunderground v.1.15,2013-01-29 23:11:00,
2013-01-29 15:16:00,41.8,32.0,30.22,WNW,295,1.0,3.0,68,0.00,,,0.00,Wunderground v.1.15,2013-01-29 23:16:00,
2013-01-29 15:21:00,41.7,32.3,30.22,WNW,295,0.0,3.0,69,0.00,,,0.00,Wunderground v.1.15,2013-01-29 23:21:00,
2013-01-29 15:26:00,41.4,32.0,30.22,WNW,295,1.0,2.0,69,0.00,,,0.00,Wunderground v.1.15,2013-01-29 23:26:00,
2013-01-29 15:31:00,41.0,32.0,30.22,WNW,295,0.0,4.0,70,0.00,,,0.00,Wunderground v.1.15,2013-01-29 23:31:00,
2013-01-29 15:36:00,41.0,33.7,30.22,WNW,295,1.0,1.0,75,0.00,,,0.00,Wunderground v.1.15,2013-01-29 23:36:00,
2013-01-29 15:41:00,41.0,32.0,30.22,WNW,295,0.0,2.0,70,0.00,,,0.00,Wunderground v.1.15,2013-01-29 23:41:00,
2013-01-29 15:46:00,40.9,31.9,30.22,WNW,295,1.0,1.0,70,0.00,,,0.00,Wunderground v.1.15,2013-01-29 23:46:00,
2013-01-29 15:51:00,40.7,32.0,30.22,WNW,295,0.0,1.0,71,0.00,,,0.00,Wunderground v.1.15,2013-01-29 23:51:00,
2013-01-29 15:56:00,40.6,31.9,30.22,WNW,295,0.0,1.0,71,0.00,,,0.00,Wunderground v.1.15,2013-01-29 23:56:00,
2013-01-29 16:01:00,40.6,31.9,30.22,WNW,295,2.0,2.0,71,0.00,,,0.00,Wunderground v.1.15,2013-01-30 00:01:00,
2013-01-29 16:06:00,40.1,31.8,30.22,WNW,295,1.0,2.0,72,0.00,,,0.00,Wunderground v.1.15,2013-01-30 00:06:00,
2013-01-29 16:11:00,39.6,31.7,30.22,WNW,295,4.0,4.0,73,0.00,,,0.00,Wunderground v.1.15,2013-01-30 00:11:00,
2013-01-29 16:16:00,39.2,31.9,30.22,WNW,295,1.0,4.0,75,0.00,,,0.00,Wunderground v.1.15,2013-01-30 00:16:00,
2013-01-29 16:21:00,38.8,31.6,30.21,WNW,295,3.0,4.0,75,0.00,,,0.00,Wunderground v.1.15,2013-01-30 00:21:00,
2013-01-29 16:26:00,38.5,31.6,30.21,WNW,295,3.0,4.0,76,0.00,,,0.00,Wunderground v.1.15,2013-01-30 00:26:00,
2013-01-29 16:31:00,38.3,31.4,30.21,WNW,295,2.0,4.0,76,0.00,,,0.00,Wunderground v.1.15,2013-01-30 00:31:00,
2013-01-29 16:36:00,38.1,31.2,30.21,WNW,295,1.0,3.0,76,0.00,,,0.00,Wunderground v.1.15,2013-01-30 00:36:00,
2013-01-29 16:41:00,38.1,31.2,30.21,WNW,295,2.0,4.0,76,0.00,,,0.00,Wunderground v.1.15,2013-01-30 00:41:00,
2013-01-29 16:46:00,38.1,31.5,30.21,WNW,295,1.0,2.0,77,0.00,,,0.00,Wunderground v.1.15,2013-01-30 00:46:00,
2013-01-29 16:51:00,37.9,31.3,30.21,WNW,295,2.0,2.0,77,0.00,,,0.00,Wunderground v.1.15,2013-01-30 00:51:00,
2013-01-29 16:56:00,37.2,31.0,30.21,WNW,295,2.0,3.0,78,0.00,,,0.00,Wunderground v.1.15,2013-01-30 00:56:00,
2013-01-29 17:01:00,36.9,31.0,30.21,WNW,295,2.0,4.0,79,0.00,,,0.00,Wunderground v.1.15,2013-01-30 01:01:00,
2013-01-29 17:06:00,36.9,31.0,30.21,WNW,295,3.0,3.0,79,0.00,,,0.00,Wunderground v.1.15,2013-01-30 01:06:00,
2013-01-29 17:11:00,36.8,30.9,30.21,WNW,295,0.0,3.0,79,0.00,,,0.00,Wunderground v.1.15,2013-01-30 01:11:00,
2013-01-29 17:16:00,36.6,30.7,30.20,WNW,295,2.0,3.0,79,0.00,,,0.00,Wunderground v.1.15,2013-01-30 01:16:00,
2013-01-29 17:21:00,36.4,30.8,30.20,WNW,295,2.0,3.0,80,0.00,,,0.00,Wunderground v.1.15,2013-01-30 01:21:00,
2013-01-29 17:26:00,36.4,30.8,30.20,WNW,295,2.0,3.0,80,0.00,,,0.00,Wunderground v.1.15,2013-01-30 01:26:00,
2013-01-29 17:31:00,36.4,30.8,30.20,WNW,295,2.0,3.0,80,0.00,,,0.00,Wunderground v.1.15,2013-01-30 01:31:00,
2013-01-29 17:36:00,36.3,31.0,30.20,WNW,295,4.0,4.0,81,0.00,,,0.00,Wunderground v.1.15,2013-01-30 01:36:00,
2013-01-29 17:41:00,35.9,30.6,30.19,WNW,295,3.0,4.0,81,0.00,,,0.00,Wunderground v.1.15,2013-01-30 01:41:00,
2013-01-29 17:46:00,35.6,30.3,30.19,WNW,295,2.0,3.0,81,0.00,,,0.00,Wunderground v.1.15,2013-01-30 01:46:00,
2013-01-29 17:51:00,35.5,30.2,30.19,WNW,295,3.0,3.0,81,0.00,,,0.00,Wunderground v.1.15,2013-01-30 01:51:00,
2013-01-29 17:56:00,35.3,30.4,30.18,WNW,295,2.0,3.0,82,0.00,,,0.00,Wunderground v.1.15,2013-01-30 01:56:00,
2013-01-29 18:01:00,35.2,30.3,30.18,WNW,295,3.0,4.0,82,0.00,,,0.00,Wunderground v.1.15,2013-01-30 02:01:00,
2013-01-29 18:06:00,35.3,30.4,30.18,WNW,295,2.0,3.0,82,0.00,,,0.00,Wunderground v.1.15,2013-01-30 02:06:00,
2013-01-29 18:11:00,34.9,30.0,30.18,WNW,295,3.0,4.0,82,0.00,,,0.00,Wunderground v.1.15,2013-01-30 02:11:00,
2013-01-29 18:16:00,34.8,30.2,30.18,WNW,295,1.0,3.0,83,0.00,,,0.00,Wunderground v.1.15,2013-01-30 02:16:00,
2013-01-29 18:21:00,35.1,30.5,30.17,WNW,295,0.0,3.0,83,0.00,,,0.00,Wunderground v.1.15,2013-01-30 02:21:00,
2013-01-29 18:26:00,35.3,30.7,30.18,WNW,295,3.0,3.0,83,0.00,,,0.00,Wunderground v.1.15,2013-01-30 02:26:00,
2013-01-29 18:31:00,35.3,30.7,30.17,WNW,295,2.0,3.0,83,0.00,,,0.00,Wunderground v.1.15,2013-01-30 02:31:00,
2013-01-29 18:36:00,35.2,30.6,30.17,WNW,295,1.0,3.0,83,0.00,,,0.00,Wunderground v.1.15,2013-01-30 02:36:00,
2013-01-29 18:41:00,34.9,30.3,30.16,WNW,295,0.0,3.0,83,0.00,,,0.00,Wunderground v.1.15,2013-01-30 02:41:00,
2013-01-29 18:46:00,35.2,30.9,30.17,WNW,295,1.0,4.0,84,0.00,,,0.00,Wunderground v.1.15,2013-01-30 02:46:00,
2013-01-29 18:51:00,35.0,30.4,30.17,WNW,295,1.0,4.0,83,0.00,,,0.00,Wunderground v.1.15,2013-01-30 02:51:00,
2013-01-29 18:56:00,34.7,30.1,30.17,WNW,295,1.0,3.0,83,0.00,,,0.00,Wunderground v.1.15,2013-01-30 02:56:00,
2013-01-29 19:01:00,34.3,30.0,30.16,WNW,295,0.0,3.0,84,0.00,,,0.00,Wunderground v.1.15,2013-01-30 03:01:00,
2013-01-29 19:06:00,34.1,30.1,30.16,WNW,295,2.0,3.0,85,0.00,,,0.00,Wunderground v.1.15,2013-01-30 03:06:00,
2013-01-29 19:11:00,34.1,30.1,30.16,WNW,295,3.0,5.0,85,0.00,,,0.00,Wunderground v.1.15,2013-01-30 03:11:00,
2013-01-29 19:16:00,34.2,30.2,30.15,WNW,295,3.0,5.0,85,0.00,,,0.00,Wunderground v.1.15,2013-01-30 03:16:00,
2013-01-29 19:21:00,34.5,30.5,30.16,WNW,295,5.0,5.0,85,0.00,,,0.00,Wunderground v.1.15,2013-01-30 03:21:00,
2013-01-29 19:26:00,34.4,30.1,30.16,WNW,295,4.0,5.0,84,0.00,,,0.00,Wunderground v.1.15,2013-01-30 03:26:00,
2013-01-29 19:31:00,34.3,30.3,30.16,WNW,295,3.0,5.0,85,0.00,,,0.00,Wunderground v.1.15,2013-01-30 03:31:00,
2013-01-29 19:36:00,34.1,30.1,30.15,WNW,295,4.0,4.0,85,0.00,,,0.00,Wunderground v.1.15,2013-01-30 03:36:00,
2013-01-29 19:42:00,33.8,30.1,30.15,WNW,295,4.0,5.0,86,0.00,,,0.00,Wunderground v.1.15,2013-01-30 03:42:00,
2013-01-29 19:47:00,34.4,30.6,30.15,WNW,295,4.0,5.0,86,0.00,,,0.00,Wunderground v.1.15,2013-01-30 03:47:00,
2013-01-29 19:51:00,35.0,30.7,30.15,WNW,296,6.0,7.0,84,0.00,,,0.00,Wunderground v.1.15,2013-01-30 03:51:00,
2013-01-29 19:57:00,35.4,30.8,30.15,WNW,303,5.0,5.0,83,0.00,,,0.00,Wunderground v.1.15,2013-01-30 03:57:00,
2013-01-29 20:01:00,35.5,30.8,30.15,WNW,303,3.0,5.0,83,0.00,,,0.00,Wunderground v.1.15,2013-01-30 04:01:00,
2013-01-29 20:06:00,35.9,30.9,30.15,WNW,303,5.0,5.0,82,0.00,,,0.00,Wunderground v.1.15,2013-01-30 04:06:00,
2013-01-29 20:11:00,36.4,31.1,30.15,WNW,303,1.0,5.0,81,0.00,,,0.00,Wunderground v.1.15,2013-01-30 04:11:00,
2013-01-29 20:16:00,36.4,31.1,30.15,WNW,303,2.0,3.0,81,0.00,,,0.00,Wunderground v.1.15,2013-01-30 04:16:00,
2013-01-29 20:21:00,36.3,31.0,30.15,WNW,303,2.0,4.0,81,0.00,,,0.00,Wunderground v.1.15,2013-01-30 04:21:00,
2013-01-29 20:26:00,35.5,30.5,30.16,WNW,303,2.0,3.0,82,0.00,,,0.00,Wunderground v.1.15,2013-01-30 04:26:00,
2013-01-29 20:32:00,35.2,30.6,30.16,WNW,303,5.0,6.0,83,0.00,,,0.00,Wunderground v.1.15,2013-01-30 04:32:00,
2013-01-29 20:37:00,35.0,30.4,30.17,WNW,303,2.0,5.0,83,0.00,,,0.00,Wunderground v.1.15,2013-01-30 04:37:00,
2013-01-29 20:42:00,34.5,29.9,30.17,WNW,303,2.0,5.0,83,0.00,,,0.00,Wunderground v.1.15,2013-01-30 04:42:00,
2013-01-29 20:47:00,34.2,29.9,30.17,WNW,303,1.0,2.0,84,0.00,,,0.00,Wunderground v.1.15,2013-01-30 04:47:00,
2013-01-29 20:52:00,34.1,30.1,30.17,WNW,303,3.0,4.0,85,0.00,,,0.00,Wunderground v.1.15,2013-01-30 04:52:00,
2013-01-29 20:57:00,33.8,30.1,30.16,WNW,303,2.0,4.0,86,0.00,,,0.00,Wunderground v.1.15,2013-01-30 04:57:00,
2013-01-29 21:01:00,33.8,30.1,30.16,WNW,299,7.0,7.0,86,0.00,,,0.00,Wunderground v.1.15,2013-01-30 05:01:00,
2013-01-29 21:02:00,33.9,30.2,30.16,West,281,9.0,9.0,86,0.00,,,0.00,Wunderground v.1.15,2013-01-30 05:02:00,
2013-01-29 21:03:00,33.9,30.2,30.16,West,279,7.0,9.0,86,0.00,,,0.00,Wunderground v.1.15,2013-01-30 05:03:00,
2013-01-29 21:08:00,35.1,31.0,30.15,West,278,8.0,11.0,85,0.00,,,0.00,Wunderground v.1.15,2013-01-30 05:08:00,
2013-01-29 21:14:00,35.6,30.9,30.16,WNW,283,3.0,6.0,83,0.00,,,0.00,Wunderground v.1.15,2013-01-30 05:14:00,
2013-01-29 21:19:00,35.6,30.9,30.16,WNW,283,1.0,6.0,83,0.00,,,0.00,Wunderground v.1.15,2013-01-30 05:19:00,
2013-01-29 21:24:00,35.6,30.9,30.16,WNW,283,2.0,2.0,83,0.00,,,0.00,Wunderground v.1.15,2013-01-30 05:24:00,
2013-01-29 21:29:00,35.9,30.9,30.15,West,280,6.0,8.0,82,0.00,,,0.00,Wunderground v.1.15,2013-01-30 05:29:00,
2013-01-29 21:32:00,35.9,30.9,30.15,West,279,5.0,8.0,82,0.00,,,0.00,Wunderground v.1.15,2013-01-30 05:32:00,
2013-01-29 21:37:00,35.9,30.9,30.16,West,276,5.0,7.0,82,0.00,,,0.00,Wunderground v.1.15,2013-01-30 05:37:00,
2013-01-29 21:42:00,35.7,30.7,30.16,West,276,2.0,7.0,82,0.00,,,0.00,Wunderground v.1.15,2013-01-30 05:42:00,
2013-01-29 21:47:00,35.0,30.4,30.16,West,276,2.0,4.0,83,0.00,,,0.00,Wunderground v.1.15,2013-01-30 05:47:00,
2013-01-29 21:52:00,35.0,30.4,30.16,West,276,1.0,4.0,83,0.00,,,0.00,Wunderground v.1.15,2013-01-30 05:52:00,
2013-01-29 21:57:00,34.8,30.2,30.16,West,276,1.0,3.0,83,0.00,,,0.00,Wunderground v.1.15,2013-01-30 05:57:00,
2013-01-29 22:02:00,35.0,30.7,30.16,West,276,0.0,3.0,84,0.00,,,0.00,Wunderground v.1.15,2013-01-30 06:02:00,
2013-01-29 22:07:00,35.5,30.8,30.15,West,276,3.0,4.0,83,0.00,,,0.00,Wunderground v.1.15,2013-01-30 06:07:00,
2013-01-29 22:12:00,36.2,31.2,30.15,West,276,3.0,5.0,82,0.00,,,0.00,Wunderground v.1.15,2013-01-30 06:12:00,
2013-01-29 22:17:00,36.5,31.5,30.16,West,279,4.0,5.0,82,0.00,,,0.00,Wunderground v.1.15,2013-01-30 06:17:00,
2013-01-29 22:22:00,37.8,32.8,30.16,West,281,1.0,5.0,82,0.00,,,0.00,Wunderground v.1.15,2013-01-30 06:22:00,
2013-01-29 22:27:00,38.4,32.8,30.16,West,281,2.0,3.0,80,0.00,,,0.00,Wunderground v.1.15,2013-01-30 06:27:00,
2013-01-29 22:32:00,39.3,33.3,30.16,West,281,3.0,8.0,79,0.00,,,0.00,Wunderground v.1.15,2013-01-30 06:32:00,
2013-01-29 22:37:00,40.3,33.3,30.16,West,281,5.0,7.0,76,0.00,,,0.00,Wunderground v.1.15,2013-01-30 06:37:00,
2013-01-29 22:42:00,40.2,32.9,30.16,West,281,7.0,9.0,75,0.00,,,0.00,Wunderground v.1.15,2013-01-30 06:42:00,
2013-01-29 22:47:00,40.3,33.0,30.15,West,280,5.0,8.0,75,0.00,,,0.00,Wunderground v.1.15,2013-01-30 06:47:00,
2013-01-29 22:52:00,40.5,33.2,30.16,West,280,4.0,8.0,75,0.00,,,0.00,Wunderground v.1.15,2013-01-30 06:52:00,
2013-01-29 22:57:00,39.9,32.6,30.16,West,280,1.0,5.0,75,0.00,,,0.00,Wunderground v.1.15,2013-01-30 06:57:00,
2013-01-29 23:00:00,39.7,32.8,30.16,West,280,0.0,5.0,76,0.00,,,0.00,Wunderground v.1.15,2013-01-30 07:00:00,
2013-01-29 23:05:00,37.0,29.5,30.17,West,280,1.0,4.0,74,0.00,,,0.00,Wunderground v.1.15,2013-01-30 07:05:00,
2013-01-29 23:10:00,34.4,28.6,30.17,West,280,3.0,4.0,79,0.00,,,0.00,Wunderground v.1.15,2013-01-30 07:10:00,
2013-01-29 23:15:00,33.1,28.5,30.17,West,280,0.0,2.0,83,0.00,,,0.00,Wunderground v.1.15,2013-01-30 07:15:00,
2013-01-29 23:20:00,32.5,28.2,30.17,West,280,3.0,4.0,84,0.00,,,0.00,Wunderground v.1.15,2013-01-30 07:20:00,
2013-01-29 23:25:00,32.0,28.3,30.16,West,280,2.0,3.0,86,0.00,,,0.00,Wunderground v.1.15,2013-01-30 07:25:00,
2013-01-29 23:30:00,32.3,28.9,30.16,West,280,0.0,3.0,87,0.00,,,0.00,Wunderground v.1.15,2013-01-30 07:30:00,
2013-01-29 23:35:00,32.8,29.6,30.17,West,280,2.0,2.0,88,0.00,,,0.00,Wunderground v.1.15,2013-01-30 07:35:00,
2013-01-29 23:40:00,33.3,29.8,30.17,West,280,1.0,3.0,87,0.00,,,0.00,Wunderground v.1.15,2013-01-30 07:40:00,
2013-01-29 23:45:00,33.9,30.7,30.16,West,280,1.0,2.0,88,0.00,,,0.00,Wunderground v.1.15,2013-01-30 07:45:00,
2013-01-29 23:50:00,34.6,32.5,30.16,West,280,0.0,2.0,92,0.00,,,0.00,Wunderground v.1.15,2013-01-30 07:50:00,
2013-01-29 23:54:00,34.8,30.8,30.16,West,280,1.0,1.0,85,0.00,,,0.00,Wunderground v.1.15,2013-01-30 07:54:00,
2013-01-29 23:55:00,34.7,30.4,30.16,West,280,1.0,1.0,84,0.00,,,0.00,Wunderground v.1.15,2013-01-30 07:55:00,